sensor_id;sensor_type;location;lat;lon;timestamp;temperature;humidity
11043;DHT22;5574;48.786;10.120;2023-04-24T00:01:39;11.70;99.90
11043;DHT22;5574;48.786;10.120;2023-04-24T00:04:06;11.70;99.90
11043;DHT22;5574;48.786;10.120;2023-04-24T00:06:36;11.70;99.90
11043;DHT22;5574;48.786;10.120;2023-04-24T00:09:04;11.60;99.90
11043;DHT22;5574;48.786;10.120;2023-04-24T00:11:31;11.60;99.90
11043;DHT22;5574;48.786;10.120;2023-04-24T00:13:57;11.60;99.90
11043;DHT22;5574;48.786;10.120;2023-04-24T00:16:24;11.60;99.90
11043;DHT22;5574;48.786;10.120;2023-04-24T00:18:52;11.50;99.90
11043;DHT22;5574;48.786;10.120;2023-04-24T00:21:21;11.60;99.90
11043;DHT22;5574;48.786;10.120;2023-04-24T00:23:51;11.60;99.90
11043;DHT22;5574;48.786;10.120;2023-04-24T00:26:17;11.50;99.90
11043;DHT22;5574;48.786;10.120;2023-04-24T00:28:44;11.40;99.90
11043;DHT22;5574;48.786;10.120;2023-04-24T00:31:11;11.40;99.90
11043;DHT22;5574;48.786;10.120;2023-04-24T00:33:38;11.40;99.90
11043;DHT22;5574;48.786;10.120;2023-04-24T00:36:06;11.40;99.90
11043;DHT22;5574;48.786;10.120;2023-04-24T00:38:33;11.30;99.90
11043;DHT22;5574;48.786;10.120;2023-04-24T00:41:00;11.30;99.90
11043;DHT22;5574;48.786;10.120;2023-04-24T00:43:26;11.30;99.90
11043;DHT22;5574;48.786;10.120;2023-04-24T00:45:54;11.30;99.90
11043;DHT22;5574;48.786;10.120;2023-04-24T00:48:21;11.20;99.90
11043;DHT22;5574;48.786;10.120;2023-04-24T00:50:49;11.20;99.90
11043;DHT22;5574;48.786;10.120;2023-04-24T00:53:17;11.20;99.90
11043;DHT22;5574;48.786;10.120;2023-04-24T00:55:44;11.30;99.90
11043;DHT22;5574;48.786;10.120;2023-04-24T00:58:11;11.30;99.90
11043;DHT22;5574;48.786;10.120;2023-04-24T01:00:38;11.30;99.90
11043;DHT22;5574;48.786;10.120;2023-04-24T01:03:05;11.30;99.90
11043;DHT22;5574;48.786;10.120;2023-04-24T01:05:32;11.30;99.90
11043;DHT22;5574;48.786;10.120;2023-04-24T01:07:59;11.30;99.90
11043;DHT22;5574;48.786;10.120;2023-04-24T01:10:29;11.20;99.90
11043;DHT22;5574;48.786;10.120;2023-04-24T01:12:58;11.20;99.90
11043;DHT22;5574;48.786;10.120;2023-04-24T01:15:25;11.20;99.90
11043;DHT22;5574;48.786;10.120;2023-04-24T01:17:51;11.20;99.90
11043;DHT22;5574;48.786;10.120;2023-04-24T01:20:19;11.10;99.90
11043;DHT22;5574;48.786;10.120;2023-04-24T01:22:47;11.10;99.90
11043;DHT22;5574;48.786;10.120;2023-04-24T01:25:14;11.10;99.90
11043;DHT22;5574;48.786;10.120;2023-04-24T01:27:41;11.10;99.90
11043;DHT22;5574;48.786;10.120;2023-04-24T01:30:09;11.10;99.90
11043;DHT22;5574;48.786;10.120;2023-04-24T01:32:36;11.20;99.90
11043;DHT22;5574;48.786;10.120;2023-04-24T01:35:04;11.20;99.90
11043;DHT22;5574;48.786;10.120;2023-04-24T01:37:31;11.20;99.90
11043;DHT22;5574;48.786;10.120;2023-04-24T01:39:59;11.20;99.90
11043;DHT22;5574;48.786;10.120;2023-04-24T01:42:26;11.10;99.90
11043;DHT22;5574;48.786;10.120;2023-04-24T01:44:54;11.20;99.90
11043;DHT22;5574;48.786;10.120;2023-04-24T01:47:20;11.10;99.90
11043;DHT22;5574;48.786;10.120;2023-04-24T01:49:48;11.10;99.90
11043;DHT22;5574;48.786;10.120;2023-04-24T01:52:15;11.20;99.90
11043;DHT22;5574;48.786;10.120;2023-04-24T01:54:41;11.10;99.90
11043;DHT22;5574;48.786;10.120;2023-04-24T01:57:10;11.10;99.90
11043;DHT22;5574;48.786;10.120;2023-04-24T01:59:36;11.10;99.90
11043;DHT22;5574;48.786;10.120;2023-04-24T02:02:03;11.10;99.90
11043;DHT22;5574;48.786;10.120;2023-04-24T02:04:30;11.10;99.90
11043;DHT22;5574;48.786;10.120;2023-04-24T02:06:57;11.10;99.90
11043;DHT22;5574;48.786;10.120;2023-04-24T02:09:23;11.10;99.90
11043;DHT22;5574;48.786;10.120;2023-04-24T02:11:50;11.10;99.90
11043;DHT22;5574;48.786;10.120;2023-04-24T02:14:18;11.00;99.90
11043;DHT22;5574;48.786;10.120;2023-04-24T02:16:45;11.10;99.90
11043;DHT22;5574;48.786;10.120;2023-04-24T02:19:12;11.10;99.90
11043;DHT22;5574;48.786;10.120;2023-04-24T02:21:38;11.00;99.90
11043;DHT22;5574;48.786;10.120;2023-04-24T02:24:05;11.00;99.90
11043;DHT22;5574;48.786;10.120;2023-04-24T02:26:32;11.00;99.90
11043;DHT22;5574;48.786;10.120;2023-04-24T02:28:58;11.00;99.90
11043;DHT22;5574;48.786;10.120;2023-04-24T02:31:26;10.90;99.90
11043;DHT22;5574;48.786;10.120;2023-04-24T02:33:53;10.90;99.90
11043;DHT22;5574;48.786;10.120;2023-04-24T02:36:20;10.90;99.90
11043;DHT22;5574;48.786;10.120;2023-04-24T02:38:46;10.90;99.90
11043;DHT22;5574;48.786;10.120;2023-04-24T02:41:13;10.90;99.90
11043;DHT22;5574;48.786;10.120;2023-04-24T02:43:40;10.90;99.90
11043;DHT22;5574;48.786;10.120;2023-04-24T02:46:06;11.00;99.90
11043;DHT22;5574;48.786;10.120;2023-04-24T02:48:34;11.00;99.90
11043;DHT22;5574;48.786;10.120;2023-04-24T02:51:01;11.00;99.90
11043;DHT22;5574;48.786;10.120;2023-04-24T02:53:28;10.90;99.90
11043;DHT22;5574;48.786;10.120;2023-04-24T02:55:55;10.90;99.90
11043;DHT22;5574;48.786;10.120;2023-04-24T02:58:22;10.80;99.90
11043;DHT22;5574;48.786;10.120;2023-04-24T03:00:48;10.80;99.90
11043;DHT22;5574;48.786;10.120;2023-04-24T03:03:15;10.80;99.90
11043;DHT22;5574;48.786;10.120;2023-04-24T03:05:43;10.80;99.90
11043;DHT22;5574;48.786;10.120;2023-04-24T03:08:10;10.80;99.90
11043;DHT22;5574;48.786;10.120;2023-04-24T03:10:36;10.80;99.90
11043;DHT22;5574;48.786;10.120;2023-04-24T03:13:03;10.80;99.90
11043;DHT22;5574;48.786;10.120;2023-04-24T03:15:30;10.80;99.90
11043;DHT22;5574;48.786;10.120;2023-04-24T03:17:56;10.80;99.90
11043;DHT22;5574;48.786;10.120;2023-04-24T03:20:23;10.80;99.90
11043;DHT22;5574;48.786;10.120;2023-04-24T03:22:51;10.80;99.90
11043;DHT22;5574;48.786;10.120;2023-04-24T03:25:18;10.70;99.90
11043;DHT22;5574;48.786;10.120;2023-04-24T03:27:45;10.70;99.90
11043;DHT22;5574;48.786;10.120;2023-04-24T03:30:11;10.70;99.90
11043;DHT22;5574;48.786;10.120;2023-04-24T03:32:38;10.70;99.90
11043;DHT22;5574;48.786;10.120;2023-04-24T03:35:06;10.70;99.90
11043;DHT22;5574;48.786;10.120;2023-04-24T03:37:33;10.70;99.90
11043;DHT22;5574;48.786;10.120;2023-04-24T03:40:02;10.70;99.90
11043;DHT22;5574;48.786;10.120;2023-04-24T03:42:28;10.70;99.90
11043;DHT22;5574;48.786;10.120;2023-04-24T03:44:55;10.70;99.90
11043;DHT22;5574;48.786;10.120;2023-04-24T03:47:22;10.70;99.90
11043;DHT22;5574;48.786;10.120;2023-04-24T03:49:48;10.70;99.90
11043;DHT22;5574;48.786;10.120;2023-04-24T03:52:15;10.70;99.90
11043;DHT22;5574;48.786;10.120;2023-04-24T03:54:42;10.70;99.90
11043;DHT22;5574;48.786;10.120;2023-04-24T03:57:10;10.80;99.90
11043;DHT22;5574;48.786;10.120;2023-04-24T03:59:36;10.70;99.90
11043;DHT22;5574;48.786;10.120;2023-04-24T04:02:03;10.60;99.90
11043;DHT22;5574;48.786;10.120;2023-04-24T04:04:30;10.70;99.90
11043;DHT22;5574;48.786;10.120;2023-04-24T04:06:57;10.70;99.90
11043;DHT22;5574;48.786;10.120;2023-04-24T04:09:26;10.70;99.90
11043;DHT22;5574;48.786;10.120;2023-04-24T04:11:53;10.70;99.90
11043;DHT22;5574;48.786;10.120;2023-04-24T04:14:21;10.70;99.90
11043;DHT22;5574;48.786;10.120;2023-04-24T04:16:48;10.70;99.90
11043;DHT22;5574;48.786;10.120;2023-04-24T04:19:15;10.80;99.90
11043;DHT22;5574;48.786;10.120;2023-04-24T04:21:42;10.70;99.90
11043;DHT22;5574;48.786;10.120;2023-04-24T04:24:11;10.70;99.90
11043;DHT22;5574;48.786;10.120;2023-04-24T04:26:38;10.80;99.90
11043;DHT22;5574;48.786;10.120;2023-04-24T04:29:06;10.70;99.90
11043;DHT22;5574;48.786;10.120;2023-04-24T04:31:34;10.80;99.90
11043;DHT22;5574;48.786;10.120;2023-04-24T04:34:00;10.80;99.90
11043;DHT22;5574;48.786;10.120;2023-04-24T04:36:28;10.80;99.90
11043;DHT22;5574;48.786;10.120;2023-04-24T04:38:54;10.80;99.90
11043;DHT22;5574;48.786;10.120;2023-04-24T04:41:22;10.80;99.90
11043;DHT22;5574;48.786;10.120;2023-04-24T04:43:49;10.80;99.90
11043;DHT22;5574;48.786;10.120;2023-04-24T04:46:16;10.80;99.90
11043;DHT22;5574;48.786;10.120;2023-04-24T04:48:44;10.90;99.90
11043;DHT22;5574;48.786;10.120;2023-04-24T04:51:11;10.80;99.90
11043;DHT22;5574;48.786;10.120;2023-04-24T04:53:38;10.90;99.90
11043;DHT22;5574;48.786;10.120;2023-04-24T04:56:05;10.90;99.90
11043;DHT22;5574;48.786;10.120;2023-04-24T04:58:32;10.80;99.90
11043;DHT22;5574;48.786;10.120;2023-04-24T05:00:58;10.80;99.90
11043;DHT22;5574;48.786;10.120;2023-04-24T05:03:25;10.80;99.90
11043;DHT22;5574;48.786;10.120;2023-04-24T05:05:53;10.80;99.90
11043;DHT22;5574;48.786;10.120;2023-04-24T05:08:20;10.90;99.90
11043;DHT22;5574;48.786;10.120;2023-04-24T05:10:47;10.90;99.90
11043;DHT22;5574;48.786;10.120;2023-04-24T05:13:13;10.90;99.90
11043;DHT22;5574;48.786;10.120;2023-04-24T05:15:40;10.90;99.90
11043;DHT22;5574;48.786;10.120;2023-04-24T05:18:07;10.90;99.90
11043;DHT22;5574;48.786;10.120;2023-04-24T05:20:33;10.90;99.90
11043;DHT22;5574;48.786;10.120;2023-04-24T05:23:01;11.00;99.90
11043;DHT22;5574;48.786;10.120;2023-04-24T05:25:28;10.90;99.90
11043;DHT22;5574;48.786;10.120;2023-04-24T05:27:57;10.90;99.90
11043;DHT22;5574;48.786;10.120;2023-04-24T05:30:24;10.90;99.90
11043;DHT22;5574;48.786;10.120;2023-04-24T05:32:51;10.90;99.90
11043;DHT22;5574;48.786;10.120;2023-04-24T05:35:17;11.00;99.90
11043;DHT22;5574;48.786;10.120;2023-04-24T05:37:44;11.00;99.90
11043;DHT22;5574;48.786;10.120;2023-04-24T05:40:12;11.00;99.90
11043;DHT22;5574;48.786;10.120;2023-04-24T05:42:39;11.00;99.90
11043;DHT22;5574;48.786;10.120;2023-04-24T05:45:07;11.00;99.90
11043;DHT22;5574;48.786;10.120;2023-04-24T05:47:34;11.00;99.90
11043;DHT22;5574;48.786;10.120;2023-04-24T05:50:03;10.90;99.90
11043;DHT22;5574;48.786;10.120;2023-04-24T05:52:30;10.80;99.90
11043;DHT22;5574;48.786;10.120;2023-04-24T05:54:57;10.70;99.90
11043;DHT22;5574;48.786;10.120;2023-04-24T05:57:25;10.50;99.90
11043;DHT22;5574;48.786;10.120;2023-04-24T05:59:51;10.40;99.90
11043;DHT22;5574;48.786;10.120;2023-04-24T06:02:18;10.30;99.90
11043;DHT22;5574;48.786;10.120;2023-04-24T06:04:45;10.10;99.90
11043;DHT22;5574;48.786;10.120;2023-04-24T06:07:12;10.10;99.90
11043;DHT22;5574;48.786;10.120;2023-04-24T06:09:38;10.00;99.90
11043;DHT22;5574;48.786;10.120;2023-04-24T06:12:05;10.00;99.90
11043;DHT22;5574;48.786;10.120;2023-04-24T06:14:34;10.00;99.90
11043;DHT22;5574;48.786;10.120;2023-04-24T06:17:01;10.00;99.90
11043;DHT22;5574;48.786;10.120;2023-04-24T06:19:28;9.90;99.90
11043;DHT22;5574;48.786;10.120;2023-04-24T06:21:55;9.80;99.90
11043;DHT22;5574;48.786;10.120;2023-04-24T06:24:21;9.90;99.90
11043;DHT22;5574;48.786;10.120;2023-04-24T06:26:48;9.80;99.90
11043;DHT22;5574;48.786;10.120;2023-04-24T06:29:15;9.80;99.90
11043;DHT22;5574;48.786;10.120;2023-04-24T06:31:43;9.70;99.90
11043;DHT22;5574;48.786;10.120;2023-04-24T06:34:09;9.70;99.90
11043;DHT22;5574;48.786;10.120;2023-04-24T06:36:36;9.70;99.90
11043;DHT22;5574;48.786;10.120;2023-04-24T06:39:03;9.70;99.90
11043;DHT22;5574;48.786;10.120;2023-04-24T06:41:30;9.80;99.90
11043;DHT22;5574;48.786;10.120;2023-04-24T06:43:57;9.90;99.90
11043;DHT22;5574;48.786;10.120;2023-04-24T06:46:24;9.80;99.90
11043;DHT22;5574;48.786;10.120;2023-04-24T06:48:53;9.80;99.90
11043;DHT22;5574;48.786;10.120;2023-04-24T06:51:22;9.90;99.90
11043;DHT22;5574;48.786;10.120;2023-04-24T06:53:48;10.00;99.90
11043;DHT22;5574;48.786;10.120;2023-04-24T06:56:15;10.10;99.90
11043;DHT22;5574;48.786;10.120;2023-04-24T06:58:42;10.20;99.90
11043;DHT22;5574;48.786;10.120;2023-04-24T07:01:09;10.30;99.90
11043;DHT22;5574;48.786;10.120;2023-04-24T07:03:36;10.40;99.90
11043;DHT22;5574;48.786;10.120;2023-04-24T07:06:05;10.50;99.90
11043;DHT22;5574;48.786;10.120;2023-04-24T07:08:32;10.60;99.90
11043;DHT22;5574;48.786;10.120;2023-04-24T07:10:59;10.70;99.90
11043;DHT22;5574;48.786;10.120;2023-04-24T07:13:26;10.80;99.90
11043;DHT22;5574;48.786;10.120;2023-04-24T07:15:54;10.90;99.90
11043;DHT22;5574;48.786;10.120;2023-04-24T07:18:22;10.90;99.90
11043;DHT22;5574;48.786;10.120;2023-04-24T07:20:49;11.00;99.90
11043;DHT22;5574;48.786;10.120;2023-04-24T07:23:17;11.10;99.90
11043;DHT22;5574;48.786;10.120;2023-04-24T07:25:44;11.10;99.90
11043;DHT22;5574;48.786;10.120;2023-04-24T07:28:11;11.10;99.90
11043;DHT22;5574;48.786;10.120;2023-04-24T07:30:37;11.10;99.90
11043;DHT22;5574;48.786;10.120;2023-04-24T07:33:04;11.10;99.90
11043;DHT22;5574;48.786;10.120;2023-04-24T07:35:33;11.20;99.90
11043;DHT22;5574;48.786;10.120;2023-04-24T07:37:59;11.40;99.90
11043;DHT22;5574;48.786;10.120;2023-04-24T07:40:27;11.50;99.90
11043;DHT22;5574;48.786;10.120;2023-04-24T07:42:54;11.60;99.90
11043;DHT22;5574;48.786;10.120;2023-04-24T07:45:21;11.80;99.90
11043;DHT22;5574;48.786;10.120;2023-04-24T07:47:48;11.90;99.90
11043;DHT22;5574;48.786;10.120;2023-04-24T07:50:16;11.90;99.90
11043;DHT22;5574;48.786;10.120;2023-04-24T07:52:43;11.90;99.90
11043;DHT22;5574;48.786;10.120;2023-04-24T07:55:09;11.80;99.90
11043;DHT22;5574;48.786;10.120;2023-04-24T07:57:37;12.00;99.90
11043;DHT22;5574;48.786;10.120;2023-04-24T08:00:05;12.00;99.90
11043;DHT22;5574;48.786;10.120;2023-04-24T08:02:33;12.10;99.90
11043;DHT22;5574;48.786;10.120;2023-04-24T08:05:00;12.00;99.90
11043;DHT22;5574;48.786;10.120;2023-04-24T08:07:28;11.90;99.90
11043;DHT22;5574;48.786;10.120;2023-04-24T08:09:55;11.80;99.90
11043;DHT22;5574;48.786;10.120;2023-04-24T08:12:21;11.70;99.90
11043;DHT22;5574;48.786;10.120;2023-04-24T08:14:49;11.70;99.90
11043;DHT22;5574;48.786;10.120;2023-04-24T08:17:16;11.70;99.90
11043;DHT22;5574;48.786;10.120;2023-04-24T08:19:43;11.60;99.90
11043;DHT22;5574;48.786;10.120;2023-04-24T08:22:13;11.60;99.90
11043;DHT22;5574;48.786;10.120;2023-04-24T08:24:40;11.60;99.90
11043;DHT22;5574;48.786;10.120;2023-04-24T08:27:08;11.60;99.90
11043;DHT22;5574;48.786;10.120;2023-04-24T08:29:35;11.80;99.90
11043;DHT22;5574;48.786;10.120;2023-04-24T08:32:03;12.00;99.90
11043;DHT22;5574;48.786;10.120;2023-04-24T08:34:30;12.10;99.90
11043;DHT22;5574;48.786;10.120;2023-04-24T08:36:56;12.20;99.90
11043;DHT22;5574;48.786;10.120;2023-04-24T08:39:23;12.10;99.90
11043;DHT22;5574;48.786;10.120;2023-04-24T08:41:50;11.90;99.90
11043;DHT22;5574;48.786;10.120;2023-04-24T08:44:19;11.60;99.90
11043;DHT22;5574;48.786;10.120;2023-04-24T08:46:47;11.30;99.90
11043;DHT22;5574;48.786;10.120;2023-04-24T08:49:16;11.00;99.90
11043;DHT22;5574;48.786;10.120;2023-04-24T08:51:44;10.70;99.90
11043;DHT22;5574;48.786;10.120;2023-04-24T08:54:12;10.30;99.90
11043;DHT22;5574;48.786;10.120;2023-04-24T08:56:40;10.10;99.90
11043;DHT22;5574;48.786;10.120;2023-04-24T08:59:08;10.00;99.90
11043;DHT22;5574;48.786;10.120;2023-04-24T09:01:37;10.00;99.90
11043;DHT22;5574;48.786;10.120;2023-04-24T09:04:07;9.90;99.90
11043;DHT22;5574;48.786;10.120;2023-04-24T09:06:35;9.90;99.90
11043;DHT22;5574;48.786;10.120;2023-04-24T09:09:02;10.10;99.90
11043;DHT22;5574;48.786;10.120;2023-04-24T09:11:30;10.40;99.90
11043;DHT22;5574;48.786;10.120;2023-04-24T09:13:58;10.80;99.90
11043;DHT22;5574;48.786;10.120;2023-04-24T09:16:25;11.10;99.90
11043;DHT22;5574;48.786;10.120;2023-04-24T09:18:52;11.40;99.90
11043;DHT22;5574;48.786;10.120;2023-04-24T09:21:21;11.50;99.90
11043;DHT22;5574;48.786;10.120;2023-04-24T09:23:59;11.50;99.90
11043;DHT22;5574;48.786;10.120;2023-04-24T09:26:28;11.50;99.90
11043;DHT22;5574;48.786;10.120;2023-04-24T09:28:56;11.90;99.90
11043;DHT22;5574;48.786;10.120;2023-04-24T09:31:23;12.10;99.90
11043;DHT22;5574;48.786;10.120;2023-04-24T09:33:57;12.50;99.90
11043;DHT22;5574;48.786;10.120;2023-04-24T09:36:28;12.60;99.90
11043;DHT22;5574;48.786;10.120;2023-04-24T09:39:00;12.70;99.90
11043;DHT22;5574;48.786;10.120;2023-04-24T09:41:28;12.90;99.90
11043;DHT22;5574;48.786;10.120;2023-04-24T09:43:55;13.10;99.90
11043;DHT22;5574;48.786;10.120;2023-04-24T09:46:29;13.10;99.90
11043;DHT22;5574;48.786;10.120;2023-04-24T09:48:56;13.30;99.90
11043;DHT22;5574;48.786;10.120;2023-04-24T09:51:34;13.50;99.90
11043;DHT22;5574;48.786;10.120;2023-04-24T09:54:04;13.60;99.90
11043;DHT22;5574;48.786;10.120;2023-04-24T09:56:33;13.50;99.90
11043;DHT22;5574;48.786;10.120;2023-04-24T09:59:06;13.40;99.90
11043;DHT22;5574;48.786;10.120;2023-04-24T10:01:33;13.40;99.90
11043;DHT22;5574;48.786;10.120;2023-04-24T10:04:00;13.30;99.90
11043;DHT22;5574;48.786;10.120;2023-04-24T10:06:33;13.40;99.90
11043;DHT22;5574;48.786;10.120;2023-04-24T10:09:00;13.50;99.90
11043;DHT22;5574;48.786;10.120;2023-04-24T10:11:28;13.70;99.90
11043;DHT22;5574;48.786;10.120;2023-04-24T10:13:56;13.90;99.90
11043;DHT22;5574;48.786;10.120;2023-04-24T10:16:25;13.90;99.90
11043;DHT22;5574;48.786;10.120;2023-04-24T10:18:54;13.90;99.90
11043;DHT22;5574;48.786;10.120;2023-04-24T10:21:22;13.70;99.90
11043;DHT22;5574;48.786;10.120;2023-04-24T10:23:49;13.50;99.90
11043;DHT22;5574;48.786;10.120;2023-04-24T10:26:16;13.50;99.90
11043;DHT22;5574;48.786;10.120;2023-04-24T10:28:47;13.80;99.90
11043;DHT22;5574;48.786;10.120;2023-04-24T10:31:15;14.00;99.90
11043;DHT22;5574;48.786;10.120;2023-04-24T10:33:43;13.70;99.90
11043;DHT22;5574;48.786;10.120;2023-04-24T10:36:10;13.90;99.90
11043;DHT22;5574;48.786;10.120;2023-04-24T10:38:40;14.20;99.90
11043;DHT22;5574;48.786;10.120;2023-04-24T10:41:08;14.50;99.90
11043;DHT22;5574;48.786;10.120;2023-04-24T10:43:39;14.60;99.90
11043;DHT22;5574;48.786;10.120;2023-04-24T10:46:08;14.60;99.90
11043;DHT22;5574;48.786;10.120;2023-04-24T10:48:42;14.60;99.90
11043;DHT22;5574;48.786;10.120;2023-04-24T10:51:11;14.50;99.90
11043;DHT22;5574;48.786;10.120;2023-04-24T10:53:39;14.60;99.90
11043;DHT22;5574;48.786;10.120;2023-04-24T10:56:07;14.70;99.90
11043;DHT22;5574;48.786;10.120;2023-04-24T10:58:37;14.70;99.90
11043;DHT22;5574;48.786;10.120;2023-04-24T11:01:05;14.40;99.90
11043;DHT22;5574;48.786;10.120;2023-04-24T11:03:34;13.90;99.90
11043;DHT22;5574;48.786;10.120;2023-04-24T11:06:03;13.60;99.90
11043;DHT22;5574;48.786;10.120;2023-04-24T11:08:32;13.50;99.90
11043;DHT22;5574;48.786;10.120;2023-04-24T11:11:07;13.80;99.90
11043;DHT22;5574;48.786;10.120;2023-04-24T11:14:06;14.20;99.90
11043;DHT22;5574;48.786;10.120;2023-04-24T11:16:35;13.90;99.90
11043;DHT22;5574;48.786;10.120;2023-04-24T11:19:06;13.70;99.90
11043;DHT22;5574;48.786;10.120;2023-04-24T11:21:40;13.50;99.90
11043;DHT22;5574;48.786;10.120;2023-04-24T11:24:31;13.20;99.90
11043;DHT22;5574;48.786;10.120;2023-04-24T11:26:59;12.90;99.90
11043;DHT22;5574;48.786;10.120;2023-04-24T11:29:42;12.80;99.90
11043;DHT22;5574;48.786;10.120;2023-04-24T11:32:17;12.80;99.90
11043;DHT22;5574;48.786;10.120;2023-04-24T11:34:47;13.20;99.90
11043;DHT22;5574;48.786;10.120;2023-04-24T11:37:14;13.60;99.90
11043;DHT22;5574;48.786;10.120;2023-04-24T11:39:41;14.00;99.90
11043;DHT22;5574;48.786;10.120;2023-04-24T11:42:08;14.40;99.90
11043;DHT22;5574;48.786;10.120;2023-04-24T11:44:36;14.60;98.90
11043;DHT22;5574;48.786;10.120;2023-04-24T11:47:04;14.80;98.70
11043;DHT22;5574;48.786;10.120;2023-04-24T11:49:30;14.60;97.70
11043;DHT22;5574;48.786;10.120;2023-04-24T11:51:59;14.30;97.10
11043;DHT22;5574;48.786;10.120;2023-04-24T11:54:26;14.10;97.50
11043;DHT22;5574;48.786;10.120;2023-04-24T11:56:53;13.90;97.00
11043;DHT22;5574;48.786;10.120;2023-04-24T11:59:20;13.60;96.40
11043;DHT22;5574;48.786;10.120;2023-04-24T12:01:47;13.40;97.20
11043;DHT22;5574;48.786;10.120;2023-04-24T12:04:14;13.30;98.10
11043;DHT22;5574;48.786;10.120;2023-04-24T12:07:00;13.20;97.50
11043;DHT22;5574;48.786;10.120;2023-04-24T12:09:26;13.10;97.10
11043;DHT22;5574;48.786;10.120;2023-04-24T12:11:54;12.90;97.50
11043;DHT22;5574;48.786;10.120;2023-04-24T12:14:21;12.80;98.00
11043;DHT22;5574;48.786;10.120;2023-04-24T12:16:48;12.70;98.30
11043;DHT22;5574;48.786;10.120;2023-04-24T12:19:18;12.80;99.00
11043;DHT22;5574;48.786;10.120;2023-04-24T12:22:00;13.00;98.60
11043;DHT22;5574;48.786;10.120;2023-04-24T12:24:27;13.00;98.00
11043;DHT22;5574;48.786;10.120;2023-04-24T12:26:54;13.10;99.50
11043;DHT22;5574;48.786;10.120;2023-04-24T12:29:22;13.40;98.60
11043;DHT22;5574;48.786;10.120;2023-04-24T12:31:49;13.80;99.10
11043;DHT22;5574;48.786;10.120;2023-04-24T12:34:19;14.20;97.90
11043;DHT22;5574;48.786;10.120;2023-04-24T12:36:46;14.60;99.10
11043;DHT22;5574;48.786;10.120;2023-04-24T12:39:18;14.50;96.80
11043;DHT22;5574;48.786;10.120;2023-04-24T12:41:55;14.10;95.70
11043;DHT22;5574;48.786;10.120;2023-04-24T12:44:29;13.70;96.10
11043;DHT22;5574;48.786;10.120;2023-04-24T12:46:56;13.50;96.30
11043;DHT22;5574;48.786;10.120;2023-04-24T12:49:23;13.20;97.10
11043;DHT22;5574;48.786;10.120;2023-04-24T12:51:50;13.10;97.70
11043;DHT22;5574;48.786;10.120;2023-04-24T12:54:18;13.00;98.20
11043;DHT22;5574;48.786;10.120;2023-04-24T12:56:44;13.10;99.20
11043;DHT22;5574;48.786;10.120;2023-04-24T12:59:11;13.30;99.30
11043;DHT22;5574;48.786;10.120;2023-04-24T13:01:51;13.50;98.70
11043;DHT22;5574;48.786;10.120;2023-04-24T13:04:18;13.40;98.50
11043;DHT22;5574;48.786;10.120;2023-04-24T13:06:45;13.30;98.70
11043;DHT22;5574;48.786;10.120;2023-04-24T13:09:11;13.30;98.70
11043;DHT22;5574;48.786;10.120;2023-04-24T13:11:39;13.10;98.30
11043;DHT22;5574;48.786;10.120;2023-04-24T13:14:06;12.80;98.00
11043;DHT22;5574;48.786;10.120;2023-04-24T13:16:33;12.60;98.20
11043;DHT22;5574;48.786;10.120;2023-04-24T13:19:00;12.40;98.70
11043;DHT22;5574;48.786;10.120;2023-04-24T13:21:27;12.40;98.80
11043;DHT22;5574;48.786;10.120;2023-04-24T13:23:53;12.20;98.80
11043;DHT22;5574;48.786;10.120;2023-04-24T13:26:20;12.00;99.90
11043;DHT22;5574;48.786;10.120;2023-04-24T13:28:48;12.00;99.90
11043;DHT22;5574;48.786;10.120;2023-04-24T13:31:15;12.10;99.90
11043;DHT22;5574;48.786;10.120;2023-04-24T13:33:42;12.20;99.90
11043;DHT22;5574;48.786;10.120;2023-04-24T13:36:09;12.40;99.90
11043;DHT22;5574;48.786;10.120;2023-04-24T13:38:35;12.60;99.40
11043;DHT22;5574;48.786;10.120;2023-04-24T13:41:02;12.70;98.30
11043;DHT22;5574;48.786;10.120;2023-04-24T13:43:29;12.60;98.00
11043;DHT22;5574;48.786;10.120;2023-04-24T13:45:57;12.50;97.80
11043;DHT22;5574;48.786;10.120;2023-04-24T13:48:24;12.40;99.10
11043;DHT22;5574;48.786;10.120;2023-04-24T13:50:51;12.40;98.80
11043;DHT22;5574;48.786;10.120;2023-04-24T13:53:18;12.30;99.30
11043;DHT22;5574;48.786;10.120;2023-04-24T13:55:44;12.20;99.70
11043;DHT22;5574;48.786;10.120;2023-04-24T13:58:11;12.10;99.00
11043;DHT22;5574;48.786;10.120;2023-04-24T14:00:38;12.10;99.00
11043;DHT22;5574;48.786;10.120;2023-04-24T14:03:06;12.10;98.90
11043;DHT22;5574;48.786;10.120;2023-04-24T14:05:33;12.30;99.40
11043;DHT22;5574;48.786;10.120;2023-04-24T14:07:59;12.50;99.90
11043;DHT22;5574;48.786;10.120;2023-04-24T14:10:26;12.60;98.50
11043;DHT22;5574;48.786;10.120;2023-04-24T14:12:53;12.50;98.40
11043;DHT22;5574;48.786;10.120;2023-04-24T14:15:20;12.50;99.10
11043;DHT22;5574;48.786;10.120;2023-04-24T14:17:47;12.40;99.10
11043;DHT22;5574;48.786;10.120;2023-04-24T14:20:15;12.30;98.70
11043;DHT22;5574;48.786;10.120;2023-04-24T14:22:42;12.10;98.50
11043;DHT22;5574;48.786;10.120;2023-04-24T14:25:09;11.80;98.90
11043;DHT22;5574;48.786;10.120;2023-04-24T14:27:36;11.80;99.90
11043;DHT22;5574;48.786;10.120;2023-04-24T14:30:03;11.80;99.90
11043;DHT22;5574;48.786;10.120;2023-04-24T14:32:30;11.60;99.90
11043;DHT22;5574;48.786;10.120;2023-04-24T14:34:56;11.50;99.90
11043;DHT22;5574;48.786;10.120;2023-04-24T14:37:24;11.50;99.90
11043;DHT22;5574;48.786;10.120;2023-04-24T14:39:51;11.60;99.90
11043;DHT22;5574;48.786;10.120;2023-04-24T14:42:18;11.60;99.90
11043;DHT22;5574;48.786;10.120;2023-04-24T14:44:44;11.70;99.90
11043;DHT22;5574;48.786;10.120;2023-04-24T14:47:11;11.80;99.90
11043;DHT22;5574;48.786;10.120;2023-04-24T14:49:38;12.20;99.90
11043;DHT22;5574;48.786;10.120;2023-04-24T14:52:04;12.50;99.90
11043;DHT22;5574;48.786;10.120;2023-04-24T14:54:32;12.90;99.90
11043;DHT22;5574;48.786;10.120;2023-04-24T14:56:59;12.90;99.90
11043;DHT22;5574;48.786;10.120;2023-04-24T14:59:27;12.80;99.90
11043;DHT22;5574;48.786;10.120;2023-04-24T15:01:53;12.70;99.90
11043;DHT22;5574;48.786;10.120;2023-04-24T15:04:23;12.70;99.90
11043;DHT22;5574;48.786;10.120;2023-04-24T15:06:50;12.60;99.90
11043;DHT22;5574;48.786;10.120;2023-04-24T15:09:18;12.40;99.90
11043;DHT22;5574;48.786;10.120;2023-04-24T15:11:46;12.20;99.90
11043;DHT22;5574;48.786;10.120;2023-04-24T15:14:13;12.10;99.90
11043;DHT22;5574;48.786;10.120;2023-04-24T15:16:40;12.00;99.90
11043;DHT22;5574;48.786;10.120;2023-04-24T15:19:07;11.80;99.90
11043;DHT22;5574;48.786;10.120;2023-04-24T15:21:33;11.70;99.90
11043;DHT22;5574;48.786;10.120;2023-04-24T15:24:00;11.50;99.90
11043;DHT22;5574;48.786;10.120;2023-04-24T15:26:27;11.40;99.90
11043;DHT22;5574;48.786;10.120;2023-04-24T15:28:55;11.30;99.90
11043;DHT22;5574;48.786;10.120;2023-04-24T15:31:22;11.20;99.90
11043;DHT22;5574;48.786;10.120;2023-04-24T15:33:48;11.20;99.90
11043;DHT22;5574;48.786;10.120;2023-04-24T15:36:16;11.10;99.90